Ibi — 3EAR2 — position and weather

sailwx.info

Track history (hours):
 
Tides and Currents Weather Stations Pressure Air Temp Water Temp Dewpoint Dewpoint Depression Visibility Wind Speed Wind Dir Waves Ship Positions

Ibi

Last reported at 2017-Nov-24 00:16 UTC. Time now 2017-Dec-18 05:11 UTC.
Position N 32°07' W 124°27'.
Warning: this ship's position is 24 days out of date.

Length 149 m; draft 9.2 m.

Type: Cargo ship. MMSI: 354767000.

Date/timePositionNaut miles runAvg speedWind from/ knotsBaromVisibWave heightAir tempDewpointWater temp
2017-Nov-24 00:16N 32°07' W 124°27'5 9.3
2017-Nov-23 23:45N 32°04' W 124°22'2 9.4
2017-Nov-23 23:30N 32°02' W 124°20'5 9.4
2017-Nov-23 23:01N 31°60' W 124°16'5 9.4
2017-Nov-23 22:30N 31°56' W 124°11'5 9.6
2017-Nov-23 22:01N 31°53' W 124°07'5 9.6
2017-Nov-23 21:31N 31°50' W 124°03'5 9.8
2017-Nov-23 21:01N 31°47' W 123°58'5 9.5
2017-Nov-23 20:31N 31°44' W 123°54'5 9.6
2017-Nov-23 20:01N 31°41' W 123°50'5 9.9
2017-Nov-23 19:31N 31°38' W 123°45'5 9.8
2017-Nov-23 19:00N 31°35' W 123°40'510.0
2017-Nov-23 18:30N 31°32' W 123°36'5 9.9
2017-Nov-23 18:01N 31°29' W 123°31'5 9.9
2017-Nov-23 17:31N 31°26' W 123°27'510.0
2017-Nov-23 17:01N 31°23' W 123°22'510.2
2017-Nov-23 16:31N 31°19' W 123°18'510.2
2017-Nov-23 16:00N 31°16' W 123°13'510.4
2017-Nov-23 15:31N 31°13' W 123°08'510.4
2017-Nov-23 15:01N 31°10' W 123°04'610.6
2017-Nov-23 14:28N 31°06' W 122°58'510.6
2017-Nov-23 14:00N 31°03' W 122°54'510.4
2017-Nov-23 13:31N 30°60' W 122°49'1110.4
2017-Nov-23 12:24N 30°53' W 122°39'410.7
2017-Nov-23 12:01N 30°50' W 122°35'7410.5
2017-Nov-23 05:01N 30°05' W 121°28'013.7
2017-Nov-23 05:01N 30°05' W 121°27'3210.7
2017-Nov-23 02:01N 29°44' W 120°59'012.0
2017-Nov-23 02:00N 29°44' W 120°58'1112.3
2017-Nov-23 01:08N 29°38' W 120°49'212.6
2017-Nov-23 01:00N 29°37' W 120°47'3311.0
2017-Nov-22 21:58N 29°16' W 120°18'  
Track history (hours):
 
Tides and Currents Weather Stations Pressure Air Temp Water Temp Dewpoint Dewpoint Depression Visibility Wind Speed Wind Dir Waves Ship Positions

Ibi

Last reported at 2017-Nov-24 00:16 UTC. Time now 2017-Dec-18 05:11 UTC.
Position N 32°07' W 124°27'.
Warning: this ship's position is 24 days out of date.

Length 149 m; draft 9.2 m.

Type: Cargo ship. MMSI: 354767000.

Date/timePositionNaut miles runAvg speedWind from/ knotsBaromVisibWave heightAir tempDewpointWater temp
2017-Nov-24 00:16N 32°07' W 124°27'5 9.3
2017-Nov-23 23:45N 32°04' W 124°22'2 9.4
2017-Nov-23 23:30N 32°02' W 124°20'5 9.4
2017-Nov-23 23:01N 31°60' W 124°16'5 9.4
2017-Nov-23 22:30N 31°56' W 124°11'5 9.6
2017-Nov-23 22:01N 31°53' W 124°07'5 9.6
2017-Nov-23 21:31N 31°50' W 124°03'5 9.8
2017-Nov-23 21:01N 31°47' W 123°58'5 9.5
2017-Nov-23 20:31N 31°44' W 123°54'5 9.6
2017-Nov-23 20:01N 31°41' W 123°50'5 9.9
2017-Nov-23 19:31N 31°38' W 123°45'5 9.8
2017-Nov-23 19:00N 31°35' W 123°40'510.0
2017-Nov-23 18:30N 31°32' W 123°36'5 9.9
2017-Nov-23 18:01N 31°29' W 123°31'5 9.9
2017-Nov-23 17:31N 31°26' W 123°27'510.0
2017-Nov-23 17:01N 31°23' W 123°22'510.2
2017-Nov-23 16:31N 31°19' W 123°18'510.2
2017-Nov-23 16:00N 31°16' W 123°13'510.4
2017-Nov-23 15:31N 31°13' W 123°08'510.4
2017-Nov-23 15:01N 31°10' W 123°04'610.6
2017-Nov-23 14:28N 31°06' W 122°58'510.6
2017-Nov-23 14:00N 31°03' W 122°54'510.4
2017-Nov-23 13:31N 30°60' W 122°49'1110.4
2017-Nov-23 12:24N 30°53' W 122°39'410.7
2017-Nov-23 12:01N 30°50' W 122°35'7410.5
2017-Nov-23 05:01N 30°05' W 121°28'013.7
2017-Nov-23 05:01N 30°05' W 121°27'3210.7
2017-Nov-23 02:01N 29°44' W 120°59'012.0
2017-Nov-23 02:00N 29°44' W 120°58'1112.3
2017-Nov-23 01:08N 29°38' W 120°49'212.6
2017-Nov-23 01:00N 29°37' W 120°47'3311.0
2017-Nov-22 21:58N 29°16' W 120°18'  

Dump ship's entire track history